Time;durP1;ratioP1;P1;durP2;ratioP2;P2;SDS_P1;SDS_P2;PMS_P1;PMS_P2;Temp;Humidity;BMP_temperature;BMP_pressure;BME280_temperature;BME280_humidity;BME280_pressure;Samples;Min_cycle;Max_cycle;Signal;HPM_P1;HPM_P2
2023/08/14 00:01:21;;;;;;;6.13;5.53;;;;;;;;;;750215;184;920209;-64
2023/08/14 00:03:46;;;;;;;8.07;6.17;;;;;;;;;;744894;184;919157;-63
2023/08/14 00:06:12;;;;;;;6.70;5.90;;;;;;;;;;745343;184;919459;-57
2023/08/14 00:08:38;;;;;;;6.17;5.57;;;;;;;;;;744889;185;920122;-63
2023/08/14 00:11:04;;;;;;;9.03;6.50;;;;;;;;;;742971;185;918726;-58
2023/08/14 00:13:30;;;;;;;10.03;5.80;;;;;;;;;;748429;184;919485;-57
2023/08/14 00:15:56;;;;;;;7.95;6.12;;;;;;;;;;748580;185;917448;-64
2023/08/14 00:18:21;;;;;;;7.43;6.00;;;;;;;;;;741693;185;917666;-63
2023/08/14 00:20:47;;;;;;;7.37;5.73;;;;;;;;;;740496;186;917318;-63
2023/08/14 00:23:13;;;;;;;7.30;5.63;;;;;;;;;;746066;184;918776;-58
2023/08/14 00:25:39;;;;;;;7.53;5.50;;;;;;;;;;753180;184;916931;-64
2023/08/14 00:28:05;;;;;;;8.20;6.40;;;;;;;;;;734185;188;916540;-64
2023/08/14 00:30:31;;;;;;;6.80;5.50;;;;;;;;;;732847;188;921825;-59
2023/08/14 00:32:57;;;;;;;8.90;5.53;;;;;;;;;;743878;189;916292;-64
2023/08/14 00:35:22;;;;;;;8.05;5.75;;;;;;;;;;747399;185;919732;-58
2023/08/14 00:37:48;;;;;;;11.73;5.87;;;;;;;;;;745130;186;923624;-58
2023/08/14 00:40:14;;;;;;;6.37;5.13;;;;;;;;;;743471;188;919551;-59
2023/08/14 00:42:40;;;;;;;11.63;6.77;;;;;;;;;;752681;184;819401;-59
2023/08/14 00:45:07;;;;;;;6.80;5.13;;;;;;;;;;745439;185;918094;-59
2023/08/14 00:47:32;;;;;;;5.30;4.40;;;;;;;;;;745597;185;919670;-64
2023/08/14 00:49:58;;;;;;;10.70;5.70;;;;;;;;;;749480;185;919863;-64
2023/08/14 00:52:24;;;;;;;7.80;5.13;;;;;;;;;;742329;184;817741;-64
2023/08/14 00:54:50;;;;;;;9.33;6.37;;;;;;;;;;737196;187;918240;-64
2023/08/14 00:57:16;;;;;;;14.67;5.33;;;;;;;;;;739799;187;920344;-66
2023/08/14 00:59:42;;;;;;;6.37;4.90;;;;;;;;;;742085;185;912567;-65
2023/08/14 01:02:07;;;;;;;6.47;5.80;;;;;;;;;;745771;184;912736;-62
2023/08/14 01:04:33;;;;;;;6.30;5.60;;;;;;;;;;743418;184;937474;-64
2023/08/14 01:06:59;;;;;;;8.85;5.93;;;;;;;;;;742067;186;897180;-65
2023/08/14 01:09:25;;;;;;;8.90;6.73;;;;;;;;;;742842;185;919581;-58
2023/08/14 01:12:06;;;;;;;8.23;5.80;;;;;;;;;;744307;184;919867;-64
2023/08/14 01:14:31;;;;;;;9.23;6.60;;;;;;;;;;743448;183;920415;-65
2023/08/14 01:16:57;;;;;;;9.95;5.95;;;;;;;;;;749757;186;916011;-67
2023/08/14 01:19:23;;;;;;;10.23;6.03;;;;;;;;;;744288;185;920207;-60
2023/08/14 01:22:01;;;;;;;7.77;5.90;;;;;;;;;;744021;185;922180;-59
2023/08/14 01:24:26;;;;;;;8.47;5.90;;;;;;;;;;744636;186;913532;-60
2023/08/14 01:26:52;;;;;;;6.25;5.65;;;;;;;;;;755781;183;921194;-59
2023/08/14 01:29:18;;;;;;;11.33;5.50;;;;;;;;;;751368;185;924209;-66
2023/08/14 01:31:44;;;;;;;7.73;6.20;;;;;;;;;;738880;188;1006073;-59
2023/08/14 01:34:10;;;;;;;7.17;6.30;;;;;;;;;;746040;187;920192;-59
2023/08/14 01:36:37;;;;;;;14.30;5.73;;;;;;;;;;732663;187;920973;-67
2023/08/14 01:39:05;;;;;;;7.40;5.87;;;;;;;;;;734841;188;913244;-67
2023/08/14 01:41:31;;;;;;;8.57;6.13;;;;;;;;;;733524;189;824780;-60
2023/08/14 01:43:57;;;;;;;6.80;5.80;;;;;;;;;;739150;187;816879;-65
2023/08/14 01:46:23;;;;;;;14.50;6.17;;;;;;;;;;745021;185;915821;-67
2023/08/14 01:48:49;;;;;;;8.90;6.27;;;;;;;;;;746777;184;865387;-62
2023/08/14 01:51:14;;;;;;;9.73;6.40;;;;;;;;;;751006;184;919566;-66
2023/08/14 01:53:40;;;;;;;7.73;5.70;;;;;;;;;;750227;185;942337;-60
2023/08/14 01:56:06;;;;;;;14.43;7.10;;;;;;;;;;743071;184;918815;-59
2023/08/14 01:58:32;;;;;;;8.80;6.83;;;;;;;;;;748996;185;913692;-67
2023/08/14 02:00:58;;;;;;;7.60;6.23;;;;;;;;;;743089;185;919323;-60
2023/08/14 02:03:25;;;;;;;8.07;6.43;;;;;;;;;;744823;186;919188;-67
2023/08/14 02:05:50;;;;;;;7.50;6.70;;;;;;;;;;744679;185;918326;-60
2023/08/14 02:08:15;;;;;;;7.97;6.60;;;;;;;;;;750888;185;919976;-60
2023/08/14 02:10:41;;;;;;;10.03;5.73;;;;;;;;;;746540;184;876996;-66
2023/08/14 02:13:07;;;;;;;7.40;5.70;;;;;;;;;;743910;184;940129;-65
2023/08/14 02:15:33;;;;;;;6.63;5.97;;;;;;;;;;750749;184;919762;-65
2023/08/14 02:17:59;;;;;;;6.10;5.50;;;;;;;;;;747020;184;921879;-60
2023/08/14 02:20:25;;;;;;;10.90;6.10;;;;;;;;;;744186;184;918892;-67
2023/08/14 02:22:50;;;;;;;6.70;6.00;;;;;;;;;;750798;185;915652;-66
2023/08/14 02:25:16;;;;;;;8.20;5.97;;;;;;;;;;747752;185;919501;-59
2023/08/14 02:27:42;;;;;;;16.63;8.20;;;;;;;;;;747194;183;918674;-65
2023/08/14 02:30:08;;;;;;;7.90;6.62;;;;;;;;;;751150;186;821280;-65
2023/08/14 02:32:34;;;;;;;7.50;5.83;;;;;;;;;;745370;185;919240;-59
2023/08/14 02:35:00;;;;;;;7.83;6.10;;;;;;;;;;743714;184;919501;-60
2023/08/14 02:37:26;;;;;;;9.03;6.20;;;;;;;;;;748013;184;919726;-65
2023/08/14 02:39:51;;;;;;;8.10;6.50;;;;;;;;;;749582;184;919356;-58
2023/08/14 02:42:17;;;;;;;7.30;5.10;;;;;;;;;;744855;184;919183;-60
2023/08/14 02:44:43;;;;;;;7.27;5.97;;;;;;;;;;745181;184;910650;-59
2023/08/14 02:47:09;;;;;;;7.77;6.33;;;;;;;;;;752852;184;856720;-60
2023/08/14 02:49:35;;;;;;;9.53;6.63;;;;;;;;;;743153;184;957743;-60
2023/08/14 02:52:01;;;;;;;8.43;6.60;;;;;;;;;;744142;185;918964;-60
2023/08/14 02:54:26;;;;;;;9.00;6.10;;;;;;;;;;758830;184;910550;-66
2023/08/14 02:56:52;;;;;;;8.03;6.20;;;;;;;;;;744245;184;911889;-60
2023/08/14 02:59:18;;;;;;;7.37;5.80;;;;;;;;;;730316;187;919838;-65
2023/08/14 03:01:44;;;;;;;12.77;6.07;;;;;;;;;;736457;188;944531;-67
2023/08/14 03:04:10;;;;;;;7.37;6.20;;;;;;;;;;743647;186;919403;-67
2023/08/14 03:06:36;;;;;;;10.10;6.13;;;;;;;;;;738896;186;917775;-62
2023/08/14 03:09:01;;;;;;;8.37;6.33;;;;;;;;;;735625;186;929698;-67
2023/08/14 03:11:27;;;;;;;8.57;6.80;;;;;;;;;;745423;186;919008;-65
2023/08/14 03:13:53;;;;;;;10.27;6.43;;;;;;;;;;740535;189;919533;-60
2023/08/14 03:16:19;;;;;;;6.37;5.63;;;;;;;;;;745548;185;918968;-67
2023/08/14 03:18:45;;;;;;;7.87;6.60;;;;;;;;;;750558;185;924863;-60
2023/08/14 03:21:11;;;;;;;8.63;6.30;;;;;;;;;;747290;183;918561;-65
2023/08/14 03:23:36;;;;;;;9.33;6.20;;;;;;;;;;744008;185;917486;-65
2023/08/14 03:26:02;;;;;;;10.47;6.53;;;;;;;;;;749436;184;918654;-59
2023/08/14 03:28:28;;;;;;;7.47;5.80;;;;;;;;;;751513;184;625810;-59
2023/08/14 03:30:54;;;;;;;7.13;6.00;;;;;;;;;;741066;188;918646;-66
2023/08/14 03:33:20;;;;;;;7.00;5.40;;;;;;;;;;738084;187;923315;-66
2023/08/14 03:35:46;;;;;;;7.80;5.90;;;;;;;;;;741021;188;918994;-60
2023/08/14 03:38:11;;;;;;;7.10;5.60;;;;;;;;;;733494;188;914371;-61
2023/08/14 03:40:37;;;;;;;10.53;5.80;;;;;;;;;;741466;186;812171;-66
2023/08/14 03:43:03;;;;;;;6.97;5.50;;;;;;;;;;748413;188;910647;-65
2023/08/14 03:45:29;;;;;;;9.73;6.50;;;;;;;;;;745922;184;1019827;-60
2023/08/14 03:47:55;;;;;;;9.70;6.40;;;;;;;;;;743880;184;891333;-60
2023/08/14 03:50:21;;;;;;;9.50;7.13;;;;;;;;;;747338;185;916256;-67
2023/08/14 03:52:46;;;;;;;8.80;5.60;;;;;;;;;;745930;184;907191;-61
2023/08/14 03:55:12;;;;;;;9.37;6.57;;;;;;;;;;743733;185;903663;-60
2023/08/14 03:57:38;;;;;;;13.00;6.17;;;;;;;;;;748037;183;918574;-66
2023/08/14 04:00:05;;;;;;;10.73;6.03;;;;;;;;;;748417;185;919689;-59
2023/08/14 04:02:30;;;;;;;7.87;6.70;;;;;;;;;;743839;184;920359;-60
2023/08/14 04:04:56;;;;;;;9.37;6.70;;;;;;;;;;744367;185;934785;-59
2023/08/14 04:07:22;;;;;;;7.43;6.43;;;;;;;;;;750427;185;918948;-66
2023/08/14 04:09:48;;;;;;;8.50;6.00;;;;;;;;;;750254;185;816184;-67
2023/08/14 04:12:14;;;;;;;7.70;6.53;;;;;;;;;;745617;184;918735;-59
2023/08/14 04:14:40;;;;;;;8.57;6.17;;;;;;;;;;751651;185;919264;-59
2023/08/14 04:17:05;;;;;;;8.43;6.17;;;;;;;;;;746187;184;919189;-66
2023/08/14 04:19:31;;;;;;;6.33;5.73;;;;;;;;;;746308;185;917504;-60
2023/08/14 04:21:57;;;;;;;7.00;6.30;;;;;;;;;;737501;185;2147725;-61
2023/08/14 04:24:23;;;;;;;7.23;5.63;;;;;;;;;;744312;188;921613;-67
2023/08/14 04:26:49;;;;;;;10.23;6.78;;;;;;;;;;737403;185;920793;-61
2023/08/14 04:29:16;;;;;;;16.53;5.80;;;;;;;;;;743538;185;818294;-61
2023/08/14 04:31:40;;;;;;;7.43;5.67;;;;;;;;;;749902;184;919974;-68
2023/08/14 04:34:06;;;;;;;9.93;6.40;;;;;;;;;;745824;184;919140;-61
2023/08/14 04:36:32;;;;;;;7.83;6.50;;;;;;;;;;748738;184;920071;-68
2023/08/14 04:38:58;;;;;;;8.80;6.90;;;;;;;;;;750681;184;910063;-67
2023/08/14 04:41:24;;;;;;;9.50;6.93;;;;;;;;;;744146;184;916156;-66
2023/08/14 04:43:50;;;;;;;10.27;7.13;;;;;;;;;;749424;185;814897;-60
2023/08/14 04:46:15;;;;;;;8.20;6.87;;;;;;;;;;747495;184;913829;-66
2023/08/14 04:48:41;;;;;;;7.90;6.73;;;;;;;;;;747105;185;920829;-68
2023/08/14 04:51:07;;;;;;;14.23;7.03;;;;;;;;;;740548;188;918309;-67
2023/08/14 04:53:33;;;;;;;9.73;6.87;;;;;;;;;;738504;186;919291;-59
2023/08/14 04:55:59;;;;;;;7.47;6.77;;;;;;;;;;744535;186;918493;-66
2023/08/14 04:58:25;;;;;;;7.40;6.70;;;;;;;;;;754579;184;917590;-68
2023/08/14 05:00:51;;;;;;;7.30;6.23;;;;;;;;;;751499;184;911700;-66
2023/08/14 05:03:16;;;;;;;8.60;7.70;;;;;;;;;;750120;184;916273;-66
2023/08/14 05:05:42;;;;;;;7.97;6.05;;;;;;;;;;743832;183;918911;-60
2023/08/14 05:08:08;;;;;;;15.83;7.23;;;;;;;;;;743794;185;921384;-66
2023/08/14 05:10:34;;;;;;;8.30;6.67;;;;;;;;;;747220;185;918712;-60
2023/08/14 05:13:00;;;;;;;8.30;6.87;;;;;;;;;;743766;184;905698;-58
2023/08/14 05:15:26;;;;;;;7.53;5.83;;;;;;;;;;745676;185;918724;-59
2023/08/14 05:17:51;;;;;;;8.47;6.47;;;;;;;;;;746628;184;920566;-66
2023/08/14 05:20:17;;;;;;;7.80;6.30;;;;;;;;;;749294;188;919278;-60
2023/08/14 05:22:43;;;;;;;11.23;6.97;;;;;;;;;;747230;183;923140;-68
2023/08/14 05:25:10;;;;;;;11.25;6.60;;;;;;;;;;746302;184;873968;-67
2023/08/14 05:27:38;;;;;;;12.93;7.60;;;;;;;;;;746847;185;919381;-68
2023/08/14 05:30:01;;;;;;;7.93;6.67;;;;;;;;;;747747;184;819252;-60
2023/08/14 05:32:27;;;;;;;11.60;7.57;;;;;;;;;;748478;184;919568;-60
2023/08/14 05:34:52;;;;;;;8.90;6.43;;;;;;;;;;751914;184;789349;-60
2023/08/14 05:37:18;;;;;;;6.60;5.90;;;;;;;;;;744078;184;918328;-60
2023/08/14 05:39:44;;;;;;;6.60;5.77;;;;;;;;;;743092;184;919017;-60
2023/08/14 05:42:10;;;;;;;10.53;6.10;;;;;;;;;;745554;186;946949;-60
2023/08/14 05:44:36;;;;;;;9.97;6.53;;;;;;;;;;748511;185;919629;-66
2023/08/14 05:47:02;;;;;;;7.20;5.80;;;;;;;;;;745494;181;918669;-66
2023/08/14 05:49:27;;;;;;;12.10;6.40;;;;;;;;;;753276;183;812746;-60
2023/08/14 05:51:53;;;;;;;7.03;5.73;;;;;;;;;;746736;188;919396;-66
2023/08/14 05:54:19;;;;;;;8.75;6.15;;;;;;;;;;728890;188;919657;-66
2023/08/14 05:56:46;;;;;;;6.70;4.67;;;;;;;;;;737114;186;925613;-66
2023/08/14 05:59:11;;;;;;;7.93;5.70;;;;;;;;;;743987;186;819427;-66
2023/08/14 06:01:37;;;;;;;6.40;5.20;;;;;;;;;;747173;184;919574;-60
2023/08/14 06:04:03;;;;;;;6.27;5.40;;;;;;;;;;748099;185;859786;-65
2023/08/14 06:06:29;;;;;;;10.30;5.40;;;;;;;;;;750108;184;919744;-59
2023/08/14 06:08:54;;;;;;;7.47;5.70;;;;;;;;;;748419;184;919810;-66
2023/08/14 06:11:20;;;;;;;6.53;5.00;;;;;;;;;;745212;185;815622;-59
2023/08/14 06:13:46;;;;;;;7.63;5.43;;;;;;;;;;747954;185;918691;-58
2023/08/14 06:16:12;;;;;;;8.53;5.67;;;;;;;;;;748500;185;918947;-60
2023/08/14 06:18:38;;;;;;;7.10;5.90;;;;;;;;;;746750;184;868462;-60
2023/08/14 06:21:04;;;;;;;9.65;5.20;;;;;;;;;;744722;185;815644;-65
2023/08/14 06:23:29;;;;;;;7.83;5.20;;;;;;;;;;755615;185;627875;-59
2023/08/14 06:25:55;;;;;;;6.70;5.15;;;;;;;;;;748767;185;916478;-65
2023/08/14 06:28:21;;;;;;;5.80;4.77;;;;;;;;;;745824;185;871484;-59
2023/08/14 06:30:47;;;;;;;6.67;5.00;;;;;;;;;;750882;185;918180;-66
2023/08/14 06:33:13;;;;;;;5.33;3.80;;;;;;;;;;744865;185;919741;-60
2023/08/14 06:35:39;;;;;;;9.33;4.90;;;;;;;;;;745920;184;919184;-60
2023/08/14 06:38:04;;;;;;;10.33;4.77;;;;;;;;;;747231;185;816615;-65
2023/08/14 06:40:31;;;;;;;4.97;4.10;;;;;;;;;;750006;184;920085;-60
2023/08/14 06:42:56;;;;;;;6.97;4.37;;;;;;;;;;742725;184;915537;-65
2023/08/14 06:45:22;;;;;;;4.50;3.70;;;;;;;;;;744926;184;892171;-60
2023/08/14 06:47:48;;;;;;;6.40;4.67;;;;;;;;;;751632;185;922046;-60
2023/08/14 06:50:14;;;;;;;5.10;3.70;;;;;;;;;;747150;184;913115;-60
2023/08/14 06:52:40;;;;;;;9.20;4.10;;;;;;;;;;747120;184;909300;-66
2023/08/14 06:55:06;;;;;;;11.90;6.77;;;;;;;;;;749123;184;921674;-67
2023/08/14 06:57:32;;;;;;;8.10;4.10;;;;;;;;;;745629;183;921172;-67
2023/08/14 06:59:57;;;;;;;5.60;3.70;;;;;;;;;;751154;184;816291;-66
2023/08/14 07:02:23;;;;;;;7.60;4.07;;;;;;;;;;751323;183;855271;-65
2023/08/14 07:04:50;;;;;;;5.00;3.77;;;;;;;;;;744633;188;918671;-66
2023/08/14 07:07:16;;;;;;;4.53;3.50;;;;;;;;;;742091;186;920386;-59
2023/08/14 07:09:41;;;;;;;5.13;3.47;;;;;;;;;;737016;188;919842;-61
2023/08/14 07:12:07;;;;;;;6.50;3.97;;;;;;;;;;749067;184;623467;-60
2023/08/14 07:14:33;;;;;;;8.77;4.10;;;;;;;;;;748284;184;619891;-60
2023/08/14 07:16:59;;;;;;;6.33;4.13;;;;;;;;;;746792;185;845357;-60
2023/08/14 07:19:24;;;;;;;5.70;3.70;;;;;;;;;;753606;184;610355;-66
2023/08/14 07:21:50;;;;;;;4.57;3.50;;;;;;;;;;746822;185;812563;-60
2023/08/14 07:24:16;;;;;;;5.60;3.87;;;;;;;;;;750376;185;817963;-60
2023/08/14 07:26:42;;;;;;;5.05;3.75;;;;;;;;;;746382;185;913973;-61
2023/08/14 07:29:08;;;;;;;4.87;3.80;;;;;;;;;;732952;188;920417;-61
2023/08/14 07:31:34;;;;;;;4.53;3.70;;;;;;;;;;732853;186;917450;-60
2023/08/14 07:34:00;;;;;;;8.50;3.60;;;;;;;;;;734534;187;915828;-60
2023/08/14 07:36:25;;;;;;;4.70;3.60;;;;;;;;;;749963;186;914174;-60
2023/08/14 07:38:51;;;;;;;4.33;3.80;;;;;;;;;;739474;188;814260;-61
2023/08/14 07:41:17;;;;;;;5.70;3.40;;;;;;;;;;742765;185;915330;-58
2023/08/14 07:43:43;;;;;;;5.40;3.93;;;;;;;;;;747216;185;878677;-67
2023/08/14 07:46:09;;;;;;;4.23;3.30;;;;;;;;;;743959;185;918521;-67
2023/08/14 07:48:35;;;;;;;5.30;3.37;;;;;;;;;;744764;184;920896;-68
2023/08/14 07:51:00;;;;;;;4.27;3.40;;;;;;;;;;749139;185;918349;-67
2023/08/14 07:53:26;;;;;;;4.90;3.80;;;;;;;;;;745903;186;920016;-68
2023/08/14 07:55:52;;;;;;;6.27;3.97;;;;;;;;;;745924;185;919288;-59
2023/08/14 07:58:18;;;;;;;6.23;3.83;;;;;;;;;;745081;185;918658;-59
2023/08/14 08:00:44;;;;;;;7.37;3.63;;;;;;;;;;751796;185;919281;-60
2023/08/14 08:03:10;;;;;;;5.13;3.63;;;;;;;;;;742763;186;920298;-59
2023/08/14 08:05:36;;;;;;;5.32;3.60;;;;;;;;;;742746;186;919204;-59
2023/08/14 08:08:01;;;;;;;5.83;3.50;;;;;;;;;;749142;186;919476;-59
2023/08/14 08:10:27;;;;;;;9.57;3.80;;;;;;;;;;744085;185;818882;-59
2023/08/14 08:12:53;;;;;;;6.73;3.80;;;;;;;;;;746287;187;919993;-58
2023/08/14 08:15:19;;;;;;;5.57;3.40;;;;;;;;;;752570;185;857153;-66
2023/08/14 08:17:45;;;;;;;6.23;4.33;;;;;;;;;;746179;188;820225;-59
2023/08/14 08:20:11;;;;;;;4.70;3.27;;;;;;;;;;750545;185;817067;-66
2023/08/14 08:22:37;;;;;;;6.23;3.80;;;;;;;;;;752441;185;817322;-66
2023/08/14 08:25:03;;;;;;;6.90;3.70;;;;;;;;;;744714;185;812034;-58
2023/08/14 08:27:29;;;;;;;6.80;3.33;;;;;;;;;;738265;186;920128;-66
2023/08/14 08:29:54;;;;;;;4.53;3.53;;;;;;;;;;740268;189;888923;-66
2023/08/14 08:32:20;;;;;;;4.37;3.27;;;;;;;;;;752274;184;920934;-59
2023/08/14 08:34:46;;;;;;;5.50;3.10;;;;;;;;;;745737;183;918874;-59
2023/08/14 08:37:12;;;;;;;4.87;3.00;;;;;;;;;;748587;183;919362;-66
2023/08/14 08:39:38;;;;;;;11.10;3.53;;;;;;;;;;753766;184;915646;-60
2023/08/14 08:42:04;;;;;;;4.50;3.80;;;;;;;;;;731369;184;918942;-60
2023/08/14 08:44:32;;;;;;;9.17;3.47;;;;;;;;;;737964;186;922495;-68
2023/08/14 08:46:58;;;;;;;5.50;3.37;;;;;;;;;;734341;186;918117;-60
2023/08/14 08:49:25;;;;;;;5.10;3.40;;;;;;;;;;746936;186;919112;-68
2023/08/14 08:51:52;;;;;;;4.43;3.47;;;;;;;;;;736668;186;915477;-68
2023/08/14 08:54:17;;;;;;;4.83;3.30;;;;;;;;;;732206;186;916085;-60
2023/08/14 08:56:43;;;;;;;5.10;3.73;;;;;;;;;;733003;186;912331;-60
2023/08/14 08:59:11;;;;;;;7.40;3.60;;;;;;;;;;730390;190;821109;-59
2023/08/14 09:01:35;;;;;;;7.40;3.63;;;;;;;;;;731853;186;920175;-61
2023/08/14 09:04:01;;;;;;;4.70;3.80;;;;;;;;;;739785;186;833617;-69
2023/08/14 09:06:27;;;;;;;5.97;3.60;;;;;;;;;;741403;187;917661;-62
2023/08/14 09:08:52;;;;;;;9.73;3.63;;;;;;;;;;724560;192;912192;-61
2023/08/14 09:11:18;;;;;;;7.23;3.33;;;;;;;;;;727658;191;819106;-68
2023/08/14 09:13:44;;;;;;;6.73;3.30;;;;;;;;;;729843;192;918891;-70
2023/08/14 09:16:10;;;;;;;7.73;3.77;;;;;;;;;;723059;193;866791;-68
2023/08/14 09:18:36;;;;;;;6.15;3.55;;;;;;;;;;735173;189;919102;-70
2023/08/14 09:21:02;;;;;;;4.00;3.20;;;;;;;;;;728581;192;918697;-61
2023/08/14 09:23:27;;;;;;;4.03;3.60;;;;;;;;;;743870;186;918433;-63
2023/08/14 09:25:53;;;;;;;5.60;3.37;;;;;;;;;;740674;186;918510;-60
2023/08/14 09:28:19;;;;;;;4.03;3.47;;;;;;;;;;736556;189;918382;-66
2023/08/14 09:30:45;;;;;;;6.30;3.50;;;;;;;;;;731389;188;873984;-71
2023/08/14 09:33:11;;;;;;;4.60;3.00;;;;;;;;;;734067;188;918908;-61
2023/08/14 09:35:37;;;;;;;5.10;3.80;;;;;;;;;;734479;188;939839;-71
2023/08/14 09:38:03;;;;;;;4.47;3.33;;;;;;;;;;748993;187;908298;-70
2023/08/14 09:40:28;;;;;;;5.27;3.53;;;;;;;;;;738860;188;922632;-61
2023/08/14 09:42:54;;;;;;;4.50;3.50;;;;;;;;;;743263;185;917615;-61
2023/08/14 09:45:23;;;;;;;5.03;3.20;;;;;;;;;;747518;185;918855;-61
2023/08/14 09:47:49;;;;;;;4.37;3.27;;;;;;;;;;743306;185;919031;-69
2023/08/14 09:50:14;;;;;;;7.00;3.93;;;;;;;;;;745684;184;918925;-60
2023/08/14 09:52:40;;;;;;;7.43;3.20;;;;;;;;;;750756;185;920327;-68
2023/08/14 09:55:06;;;;;;;4.73;3.80;;;;;;;;;;748415;184;819835;-61
2023/08/14 09:57:32;;;;;;;4.60;3.03;;;;;;;;;;749159;185;917902;-67
2023/08/14 09:59:58;;;;;;;4.20;3.30;;;;;;;;;;744498;185;920602;-60
2023/08/14 10:02:24;;;;;;;5.80;3.50;;;;;;;;;;750763;186;918986;-60
2023/08/14 10:04:50;;;;;;;7.27;3.57;;;;;;;;;;744808;185;918633;-64
2023/08/14 10:07:16;;;;;;;4.80;3.60;;;;;;;;;;742247;184;919065;-60
2023/08/14 10:09:42;;;;;;;6.73;3.83;;;;;;;;;;749447;186;716513;-68
2023/08/14 10:12:08;;;;;;;5.67;3.50;;;;;;;;;;745074;184;919276;-61
2023/08/14 10:14:34;;;;;;;5.03;2.93;;;;;;;;;;747412;185;737158;-60
2023/08/14 10:17:00;;;;;;;4.77;3.03;;;;;;;;;;752513;183;918785;-60
2023/08/14 10:19:25;;;;;;;4.80;2.87;;;;;;;;;;739083;185;914575;-69
2023/08/14 10:21:51;;;;;;;7.90;3.30;;;;;;;;;;743022;186;919474;-70
2023/08/14 10:24:17;;;;;;;4.47;3.23;;;;;;;;;;741930;188;911085;-61
2023/08/14 10:26:43;;;;;;;4.40;3.43;;;;;;;;;;744895;187;813164;-59
2023/08/14 10:29:09;;;;;;;6.17;3.30;;;;;;;;;;735223;186;868822;-60
2023/08/14 10:31:35;;;;;;;3.95;2.72;;;;;;;;;;736365;183;915393;-68
2023/08/14 10:34:00;;;;;;;5.80;3.30;;;;;;;;;;761465;182;922965;-70
2023/08/14 10:36:26;;;;;;;4.20;3.07;;;;;;;;;;740565;187;918452;-68
2023/08/14 10:38:52;;;;;;;6.17;3.10;;;;;;;;;;732408;189;946603;-70
2023/08/14 10:41:18;;;;;;;4.23;3.53;;;;;;;;;;752501;184;918908;-68
2023/08/14 10:43:47;;;;;;;6.00;3.13;;;;;;;;;;745139;185;861642;-68
2023/08/14 10:46:14;;;;;;;7.03;3.00;;;;;;;;;;747465;184;921083;-61
2023/08/14 10:48:40;;;;;;;6.43;2.83;;;;;;;;;;741266;186;919594;-70
2023/08/14 10:51:06;;;;;;;4.63;3.17;;;;;;;;;;752958;185;920058;-70
2023/08/14 10:53:32;;;;;;;4.10;2.83;;;;;;;;;;745546;184;918766;-61
2023/08/14 10:55:58;;;;;;;5.28;3.35;;;;;;;;;;747282;185;916267;-62
2023/08/14 10:58:36;;;;;;;5.00;3.60;;;;;;;;;;751740;184;817387;-69
2023/08/14 11:01:02;;;;;;;4.40;3.37;;;;;;;;;;749373;184;919086;-69
2023/08/14 11:03:28;;;;;;;4.90;3.57;;;;;;;;;;745078;185;919490;-69
2023/08/14 11:05:54;;;;;;;4.13;3.40;;;;;;;;;;742889;184;919669;-68
2023/08/14 11:08:19;;;;;;;5.20;3.20;;;;;;;;;;750787;186;919975;-68
2023/08/14 11:10:45;;;;;;;5.73;3.40;;;;;;;;;;745825;184;914415;-62
2023/08/14 11:13:11;;;;;;;4.30;3.23;;;;;;;;;;746227;184;915674;-70
2023/08/14 11:15:37;;;;;;;5.27;3.60;;;;;;;;;;751067;185;888851;-71
2023/08/14 11:18:09;;;;;;;5.43;3.20;;;;;;;;;;740955;186;918586;-61
2023/08/14 11:20:32;;;;;;;6.53;3.30;;;;;;;;;;743981;183;933568;-61
2023/08/14 11:22:58;;;;;;;4.70;3.50;;;;;;;;;;743552;185;919677;-61
2023/08/14 11:25:24;;;;;;;8.70;3.20;;;;;;;;;;749543;185;918551;-59
2023/08/14 11:27:50;;;;;;;8.57;4.07;;;;;;;;;;744586;185;915900;-61
2023/08/14 11:30:16;;;;;;;3.60;2.90;;;;;;;;;;743009;184;916579;-61
2023/08/14 11:32:42;;;;;;;5.60;3.27;;;;;;;;;;748403;186;918820;-70
2023/08/14 11:35:08;;;;;;;9.60;3.50;;;;;;;;;;743317;184;916219;-62
2023/08/14 11:37:33;;;;;;;4.97;3.23;;;;;;;;;;743558;184;920896;-67
2023/08/14 11:40:00;;;;;;;6.40;3.20;;;;;;;;;;748896;185;818509;-61
2023/08/14 11:42:26;;;;;;;3.83;3.20;;;;;;;;;;742341;185;918588;-61
2023/08/14 11:44:52;;;;;;;5.33;3.33;;;;;;;;;;736624;188;917217;-62
2023/08/14 11:47:18;;;;;;;4.40;3.20;;;;;;;;;;734671;187;918656;-62
2023/08/14 11:49:44;;;;;;;4.47;3.07;;;;;;;;;;742381;188;918616;-62
2023/08/14 11:52:09;;;;;;;4.23;3.00;;;;;;;;;;737138;186;918915;-70
2023/08/14 11:54:35;;;;;;;6.30;4.70;;;;;;;;;;739443;186;817348;-60
2023/08/14 11:57:02;;;;;;;5.10;3.30;;;;;;;;;;758694;183;918129;-60
2023/08/14 11:59:27;;;;;;;4.50;3.00;;;;;;;;;;746073;185;815856;-62
2023/08/14 12:01:53;;;;;;;5.90;3.30;;;;;;;;;;754612;185;916411;-61
2023/08/14 12:04:19;;;;;;;6.70;3.50;;;;;;;;;;753212;185;919096;-62
2023/08/14 12:06:44;;;;;;;6.00;3.40;;;;;;;;;;739472;186;995529;-61
2023/08/14 12:09:10;;;;;;;5.60;3.30;;;;;;;;;;750607;185;911831;-71
2023/08/14 12:11:36;;;;;;;5.17;3.50;;;;;;;;;;746448;186;817649;-61
2023/08/14 12:14:03;;;;;;;4.53;3.03;;;;;;;;;;738899;188;1002997;-71
2023/08/14 12:16:30;;;;;;;3.50;2.50;;;;;;;;;;737744;188;907598;-63
2023/08/14 12:18:54;;;;;;;4.03;2.97;;;;;;;;;;736976;186;818603;-62
2023/08/14 12:21:20;;;;;;;3.80;3.10;;;;;;;;;;742832;186;915190;-62
2023/08/14 12:23:46;;;;;;;6.97;3.10;;;;;;;;;;733641;188;916961;-72
2023/08/14 12:26:12;;;;;;;9.33;3.50;;;;;;;;;;730127;188;922480;-71
2023/08/14 12:28:38;;;;;;;4.03;3.30;;;;;;;;;;737147;188;919011;-62
2023/08/14 12:31:04;;;;;;;6.30;3.63;;;;;;;;;;741413;188;914490;-61
2023/08/14 12:33:29;;;;;;;8.00;3.23;;;;;;;;;;737994;188;919702;-71
2023/08/14 12:35:55;;;;;;;6.50;3.20;;;;;;;;;;744279;184;1020659;-70
2023/08/14 12:38:21;;;;;;;6.37;4.13;;;;;;;;;;752937;184;806126;-62
2023/08/14 12:40:47;;;;;;;6.87;2.77;;;;;;;;;;745753;185;918750;-71
2023/08/14 12:43:13;;;;;;;5.63;3.40;;;;;;;;;;742566;185;919355;-71
2023/08/14 12:45:39;;;;;;;3.93;2.77;;;;;;;;;;749851;185;933911;-70
2023/08/14 12:48:05;;;;;;;5.20;3.47;;;;;;;;;;745086;185;818669;-72
2023/08/14 12:50:31;;;;;;;9.10;3.80;;;;;;;;;;745472;186;818119;-70
2023/08/14 12:52:57;;;;;;;5.00;3.17;;;;;;;;;;755379;185;916866;-62
2023/08/14 12:55:22;;;;;;;6.27;2.90;;;;;;;;;;756015;183;819025;-61
2023/08/14 12:57:48;;;;;;;4.23;3.10;;;;;;;;;;742451;184;916120;-62
2023/08/14 13:00:14;;;;;;;6.93;3.57;;;;;;;;;;748588;184;1019631;-70
2023/08/14 13:02:40;;;;;;;6.33;3.40;;;;;;;;;;739903;188;918599;-63
2023/08/14 13:05:06;;;;;;;7.87;2.93;;;;;;;;;;739465;187;935553;-62
2023/08/14 13:07:32;;;;;;;6.93;3.07;;;;;;;;;;731907;186;918136;-68
2023/08/14 13:09:58;;;;;;;3.50;2.53;;;;;;;;;;742267;188;715541;-73
2023/08/14 13:12:24;;;;;;;5.20;3.20;;;;;;;;;;737740;188;907260;-61
2023/08/14 13:14:50;;;;;;;8.07;2.93;;;;;;;;;;741420;186;917126;-62
2023/08/14 13:17:15;;;;;;;5.90;3.30;;;;;;;;;;750256;183;848368;-60
2023/08/14 13:19:41;;;;;;;8.47;3.20;;;;;;;;;;743271;184;916815;-71
2023/08/14 13:22:07;;;;;;;3.70;2.93;;;;;;;;;;746533;185;919375;-71
2023/08/14 13:24:34;;;;;;;3.90;2.80;;;;;;;;;;746849;184;918506;-69
2023/08/14 13:26:59;;;;;;;3.80;2.67;;;;;;;;;;753704;183;841324;-61
2023/08/14 13:29:25;;;;;;;13.03;3.50;;;;;;;;;;746370;185;914225;-72
2023/08/14 13:31:51;;;;;;;6.57;4.30;;;;;;;;;;749963;185;915359;-70
2023/08/14 13:34:17;;;;;;;5.00;3.20;;;;;;;;;;750340;184;915086;-61
2023/08/14 13:36:42;;;;;;;4.73;3.27;;;;;;;;;;744586;184;920685;-62
2023/08/14 13:39:09;;;;;;;6.33;3.20;;;;;;;;;;744235;185;918914;-69
2023/08/14 13:41:34;;;;;;;6.87;3.40;;;;;;;;;;750970;184;919575;-63
2023/08/14 13:44:00;;;;;;;4.80;2.97;;;;;;;;;;747882;185;917334;-69
2023/08/14 13:46:26;;;;;;;4.43;3.23;;;;;;;;;;749500;184;989968;-61
2023/08/14 13:48:52;;;;;;;6.70;3.40;;;;;;;;;;752870;184;920040;-61
2023/08/14 13:51:18;;;;;;;8.27;3.27;;;;;;;;;;746402;185;924033;-71
2023/08/14 13:53:43;;;;;;;4.37;2.73;;;;;;;;;;744219;184;919695;-63
2023/08/14 13:56:09;;;;;;;5.83;3.70;;;;;;;;;;746231;185;920010;-63
2023/08/14 13:58:35;;;;;;;5.57;2.70;;;;;;;;;;748483;186;919541;-62
2023/08/14 14:01:01;;;;;;;5.73;3.20;;;;;;;;;;744025;185;882679;-71
2023/08/14 14:03:27;;;;;;;11.93;3.60;;;;;;;;;;745433;185;880579;-70
2023/08/14 14:05:53;;;;;;;4.80;2.97;;;;;;;;;;751360;185;918414;-61
2023/08/14 14:08:18;;;;;;;3.97;2.70;;;;;;;;;;749876;184;923774;-70
2023/08/14 14:10:44;;;;;;;7.67;3.10;;;;;;;;;;747033;184;919282;-70
2023/08/14 14:13:10;;;;;;;5.00;3.00;;;;;;;;;;750776;184;849861;-62
2023/08/14 14:15:36;;;;;;;5.90;3.60;;;;;;;;;;746978;184;920409;-62
2023/08/14 14:18:02;;;;;;;9.10;2.60;;;;;;;;;;743777;186;918724;-70
2023/08/14 14:20:28;;;;;;;4.20;2.90;;;;;;;;;;741806;186;920722;-67